createdAt,value
2022-08-28T00:00:40.350Z,72.20
2022-08-28T00:03:07.513Z,72.20
2022-08-28T00:05:34.602Z,73.70
2022-08-28T00:08:01.591Z,73.10
2022-08-28T00:10:29.063Z,72.70
2022-08-28T00:12:57.878Z,72.20
2022-08-28T00:15:30.170Z,72.20
2022-08-28T00:17:57.801Z,72.20
2022-08-28T00:20:25.749Z,74.00
2022-08-28T00:22:55.552Z,74.30
2022-08-28T00:25:25.524Z,73.30
2022-08-28T00:27:57.538Z,74.50
2022-08-28T00:30:31.038Z,75.10
2022-08-28T00:33:04.021Z,75.50
2022-08-28T00:35:30.807Z,75.90
2022-08-28T00:37:58.110Z,77.60
2022-08-28T00:40:30.531Z,78.40
2022-08-28T00:43:02.402Z,79.00
2022-08-28T00:45:30.791Z,79.40
2022-08-28T00:47:58.564Z,80.20
2022-08-28T00:50:28.898Z,81.20
2022-08-28T00:53:00.656Z,82.10
2022-08-28T00:55:29.119Z,83.10
2022-08-28T00:57:59.543Z,82.80
2022-08-28T01:00:36.454Z,81.80
2022-08-28T01:03:05.714Z,81.80
2022-08-28T01:05:35.913Z,82.70
2022-08-28T01:08:06.335Z,82.70
2022-08-28T01:10:34.889Z,83.20
2022-08-28T01:13:02.864Z,83.80
2022-08-28T01:15:33.948Z,83.60
2022-08-28T01:18:08.255Z,84.20
2022-08-28T01:20:41.936Z,84.30
2022-08-28T01:23:46.360Z,83.60
2022-08-28T01:26:13.361Z,81.50
2022-08-28T01:28:41.023Z,80.70
2022-08-28T01:31:11.589Z,81.40
2022-08-28T01:33:42.518Z,82.10
2022-08-28T01:36:12.131Z,82.30
2022-08-28T01:38:40.520Z,82.80
2022-08-28T01:41:07.929Z,84.30
2022-08-28T01:43:35.329Z,85.90
2022-08-28T01:46:05.929Z,87.30
2022-08-28T01:48:36.365Z,89.00
2022-08-28T01:51:05.604Z,90.20
2022-08-28T01:53:33.573Z,90.70
2022-08-28T01:56:02.786Z,90.50
2022-08-28T01:58:37.398Z,90.90
2022-08-28T02:01:09.819Z,91.00
2022-08-28T02:03:37.073Z,91.40
2022-08-28T02:06:04.302Z,91.60
2022-08-28T02:08:31.303Z,92.60
2022-08-28T02:10:58.215Z,92.80
2022-08-28T02:13:25.672Z,92.60
2022-08-28T02:15:52.886Z,92.30
2022-08-28T02:18:20.481Z,92.30
2022-08-28T02:20:47.492Z,93.30
2022-08-28T02:23:14.963Z,93.90
2022-08-28T02:25:42.152Z,94.60
2022-08-28T02:28:09.287Z,95.50
2022-08-28T02:30:37.248Z,95.90
2022-08-28T02:33:04.576Z,95.50
2022-08-28T02:35:31.652Z,95.10
2022-08-28T02:38:00.544Z,94.90
2022-08-28T02:40:27.887Z,94.70
2022-08-28T02:42:54.918Z,95.50
2022-08-28T02:45:21.931Z,96.00
2022-08-28T02:47:52.551Z,96.80
2022-08-28T02:50:20.354Z,97.10
2022-08-28T02:52:48.037Z,96.40
2022-08-28T02:55:17.451Z,96.40
2022-08-28T02:57:45.616Z,96.30
2022-08-28T03:00:16.980Z,96.80
2022-08-28T03:02:45.678Z,97.30
2022-08-28T03:05:14.358Z,97.60
2022-08-28T03:07:42.758Z,97.20
2022-08-28T03:10:10.401Z,96.30
2022-08-28T03:12:38.387Z,96.40
2022-08-28T03:15:07.745Z,96.60
2022-08-28T03:17:36.978Z,96.00
2022-08-28T03:20:09.187Z,96.00
2022-08-28T03:22:54.537Z,95.90
2022-08-28T03:25:22.549Z,95.20
2022-08-28T03:27:49.731Z,95.10
2022-08-28T03:30:17.274Z,95.90
2022-08-28T03:32:44.269Z,96.30
2022-08-28T03:35:12.100Z,96.50
2022-08-28T03:37:39.350Z,96.40
2022-08-28T03:40:08.834Z,96.70
2022-08-28T03:42:36.159Z,96.40
2022-08-28T03:45:05.425Z,95.60
2022-08-28T03:47:32.687Z,95.40
2022-08-28T03:50:00.459Z,96.90
2022-08-28T03:52:27.396Z,97.10
2022-08-28T03:54:54.510Z,96.70
2022-08-28T03:57:22.813Z,97.00
2022-08-28T03:59:52.219Z,97.70
2022-08-28T04:02:20.698Z,98.90
2022-08-28T04:04:51.459Z,98.90
2022-08-28T04:07:19.717Z,98.70
2022-08-28T04:09:47.255Z,99.00
2022-08-28T04:12:15.246Z,98.90
2022-08-28T04:14:42.453Z,99.90
2022-08-28T04:17:10.252Z,99.90
2022-08-28T04:19:38.145Z,99.90
2022-08-28T04:22:05.126Z,98.70
2022-08-28T04:24:32.197Z,98.50
2022-08-28T04:26:59.178Z,98.30
2022-08-28T04:29:26.198Z,99.30
2022-08-28T04:31:53.587Z,99.90
2022-08-28T04:34:20.578Z,99.90
2022-08-28T04:36:51.380Z,99.50
2022-08-28T04:39:18.323Z,99.90
2022-08-28T04:41:45.617Z,99.90
2022-08-28T04:44:12.709Z,99.90
2022-08-28T04:46:39.711Z,99.90
2022-08-28T04:49:07.111Z,99.90
2022-08-28T04:51:35.424Z,99.90
2022-08-28T04:54:03.927Z,99.90
2022-08-28T04:56:30.878Z,99.90
2022-08-28T04:58:57.774Z,99.40
2022-08-28T05:01:25.386Z,99.90
2022-08-28T05:03:57.994Z,99.90
2022-08-28T05:06:28.947Z,99.90
2022-08-28T05:08:58.018Z,99.90
2022-08-28T05:11:33.226Z,99.90
2022-08-28T05:14:06.818Z,99.60
2022-08-28T05:16:39.936Z,99.10
2022-08-28T05:19:06.944Z,98.80
2022-08-28T05:21:33.824Z,99.00
2022-08-28T05:24:01.060Z,99.50
2022-08-28T05:26:29.936Z,99.20
2022-08-28T05:28:58.241Z,98.20
2022-08-28T05:31:26.383Z,95.20
2022-08-28T05:33:54.392Z,95.50
2022-08-28T05:36:23.092Z,94.60
2022-08-28T05:38:57.648Z,91.70
2022-08-28T05:41:27.510Z,91.40
2022-08-28T05:43:54.416Z,92.00
2022-08-28T05:46:23.318Z,92.30
2022-08-28T05:48:50.229Z,91.80
2022-08-28T05:51:22.374Z,91.60
2022-08-28T05:53:50.111Z,90.90
2022-08-28T05:56:23.599Z,87.10
2022-08-28T05:58:50.941Z,86.80
2022-08-28T06:01:21.860Z,86.00
2022-08-28T06:03:58.227Z,85.60
2022-08-28T06:06:26.902Z,84.20
2022-08-28T06:09:01.747Z,84.90
2022-08-28T06:11:30.548Z,85.50
2022-08-28T06:14:01.565Z,85.80
2022-08-28T06:16:29.637Z,85.50
2022-08-28T06:18:57.732Z,84.70
2022-08-28T06:21:25.051Z,84.20
2022-08-28T06:23:52.212Z,84.80
2022-08-28T06:26:19.208Z,85.50
2022-08-28T06:28:46.263Z,86.00
2022-08-28T06:31:23.474Z,86.30
2022-08-28T06:33:56.104Z,85.10
2022-08-28T06:36:24.164Z,85.20
2022-08-28T06:38:51.402Z,86.00
2022-08-28T06:41:19.291Z,82.40
2022-08-28T06:43:46.233Z,81.20
2022-08-28T06:46:13.484Z,81.00
2022-08-28T06:48:40.477Z,80.80
2022-08-28T06:51:09.607Z,80.10
2022-08-28T06:53:38.662Z,79.90
2022-08-28T06:56:26.290Z,75.60
2022-08-28T06:58:55.475Z,76.40
2022-08-28T07:01:31.444Z,76.00
2022-08-28T07:04:01.277Z,76.60
2022-08-28T07:06:34.610Z,71.50
2022-08-28T07:09:03.130Z,72.40
2022-08-28T07:11:32.088Z,68.60
2022-08-28T07:13:59.765Z,67.40
2022-08-28T07:16:30.044Z,66.50
2022-08-28T07:18:57.492Z,67.50
2022-08-28T07:21:24.644Z,64.40
2022-08-28T07:23:51.836Z,61.20
2022-08-28T07:26:22.588Z,60.20
2022-08-28T07:28:50.804Z,56.50
2022-08-28T07:31:26.316Z,58.00
2022-08-28T07:33:55.162Z,60.40
2022-08-28T07:36:29.349Z,60.50
2022-08-28T07:38:59.109Z,60.00
2022-08-28T07:41:29.012Z,60.60
2022-08-28T07:44:14.314Z,62.00
2022-08-28T07:46:42.013Z,59.70
2022-08-28T07:49:09.731Z,57.30
2022-08-28T07:51:37.109Z,56.60
2022-08-28T07:54:05.369Z,59.40
2022-08-28T07:56:33.178Z,57.60
2022-08-28T07:59:01.660Z,57.30
2022-08-28T08:01:30.705Z,55.60
2022-08-28T08:04:01.125Z,55.10
2022-08-28T08:06:34.296Z,56.20
2022-08-28T08:09:02.425Z,54.70
2022-08-28T08:11:32.626Z,56.10
2022-08-28T08:14:04.714Z,57.00
2022-08-28T08:16:34.604Z,55.10
2022-08-28T08:19:02.463Z,55.80
2022-08-28T08:21:30.384Z,56.50
2022-08-28T08:24:00.606Z,54.50
2022-08-28T08:26:28.449Z,50.50
2022-08-28T08:28:56.592Z,51.40
2022-08-28T08:31:33.487Z,51.40
2022-08-28T08:34:04.791Z,51.80
2022-08-28T08:36:34.073Z,52.30
2022-08-28T08:39:01.918Z,53.00
2022-08-28T08:42:26.805Z,50.30
2022-08-28T08:44:56.495Z,49.20
2022-08-28T08:47:47.309Z,52.00
2022-08-28T08:50:22.091Z,49.80
2022-08-28T08:53:10.334Z,49.70
2022-08-28T08:55:45.318Z,49.80
2022-08-28T08:58:25.636Z,48.60
2022-08-28T09:01:23.436Z,47.60
2022-08-28T09:04:00.655Z,46.60
2022-08-28T09:06:39.737Z,45.70
2022-08-28T09:09:16.814Z,46.70
2022-08-28T09:12:03.872Z,46.30
2022-08-28T09:14:57.789Z,46.00
2022-08-28T09:17:34.880Z,46.10
2022-08-28T09:20:02.007Z,44.80
2022-08-28T09:22:28.932Z,45.70
2022-08-28T09:24:55.973Z,44.40
2022-08-28T09:27:29.104Z,45.00
2022-08-28T09:29:57.934Z,45.60
2022-08-28T09:32:35.487Z,44.50
2022-08-28T09:35:27.965Z,44.80
2022-08-28T09:37:56.426Z,45.70
2022-08-28T09:40:47.762Z,44.50
2022-08-28T09:43:28.208Z,43.00
2022-08-28T09:46:03.308Z,43.00
2022-08-28T09:48:39.121Z,44.00
2022-08-28T09:51:10.388Z,44.40
2022-08-28T09:53:44.250Z,45.80
2022-08-28T09:56:34.299Z,45.30
2022-08-28T09:59:10.714Z,43.90
2022-08-28T10:01:45.096Z,42.40
2022-08-28T10:04:24.612Z,42.40
2022-08-28T10:07:14.328Z,43.20
2022-08-28T10:10:17.639Z,42.60
2022-08-28T10:13:20.406Z,43.90
2022-08-28T10:16:09.906Z,42.00
2022-08-28T10:18:51.978Z,42.80
2022-08-28T10:21:19.010Z,41.00
2022-08-28T10:24:10.821Z,41.70
2022-08-28T10:26:44.062Z,43.20
2022-08-28T10:29:31.749Z,41.60
2022-08-28T10:32:04.340Z,41.00
2022-08-28T10:34:48.756Z,40.40
2022-08-28T10:37:48.519Z,39.20
2022-08-28T10:40:25.457Z,38.60
2022-08-28T10:43:07.507Z,39.80
2022-08-28T10:45:35.052Z,38.80
2022-08-28T10:48:10.796Z,38.20
2022-08-28T10:50:52.784Z,39.30
2022-08-28T10:53:39.129Z,38.90
2022-08-28T10:56:19.638Z,38.90
2022-08-28T10:58:49.934Z,38.60
2022-08-28T11:01:30.900Z,39.00
2022-08-28T11:04:01.179Z,39.10
2022-08-28T11:06:30.796Z,38.20
2022-08-28T11:09:20.617Z,38.20
2022-08-28T11:11:49.343Z,38.50
2022-08-28T11:14:47.823Z,38.00
2022-08-28T11:17:30.597Z,39.80
2022-08-28T11:20:27.182Z,38.40
2022-08-28T11:23:10.507Z,37.00
2022-08-28T11:25:46.528Z,36.20
2022-08-28T11:28:17.673Z,37.90
2022-08-28T11:30:47.295Z,36.70
2022-08-28T11:33:38.191Z,37.50
2022-08-28T11:36:09.800Z,36.00
2022-08-28T11:38:42.611Z,35.60
2022-08-28T11:41:17.675Z,35.30
2022-08-28T11:43:46.658Z,37.60
2022-08-28T11:46:19.921Z,36.90
2022-08-28T11:48:54.894Z,36.80
2022-08-28T11:51:39.876Z,36.60
2022-08-28T11:54:28.590Z,35.50
2022-08-28T11:57:01.672Z,34.80
2022-08-28T11:59:52.846Z,36.30
2022-08-28T12:02:39.163Z,36.20
2022-08-28T12:05:07.988Z,37.90
2022-08-28T12:07:37.924Z,38.80
2022-08-28T12:10:27.637Z,37.60
2022-08-28T12:13:07.516Z,37.10
2022-08-28T12:15:34.530Z,36.20
2022-08-28T12:18:34.615Z,35.90
2022-08-28T12:21:04.778Z,37.80
2022-08-28T12:24:14.772Z,36.80
2022-08-28T12:26:50.244Z,37.90
2022-08-28T12:29:33.245Z,35.60
2022-08-28T12:32:37.271Z,35.20
2022-08-28T12:35:16.650Z,38.50
2022-08-28T12:37:54.482Z,37.20
2022-08-28T12:40:24.808Z,36.60
2022-08-28T12:43:02.529Z,37.10
2022-08-28T12:45:37.978Z,36.10
2022-08-28T12:48:21.234Z,37.30
2022-08-28T12:50:56.189Z,36.90
2022-08-28T12:53:25.611Z,35.80
2022-08-28T12:55:54.182Z,36.30
2022-08-28T12:58:36.686Z,37.10
2022-08-28T13:01:13.652Z,36.60
2022-08-28T13:03:51.622Z,37.70
2022-08-28T13:06:28.991Z,38.20
2022-08-28T13:09:14.326Z,38.50
2022-08-28T13:11:46.729Z,38.80
2022-08-28T13:14:13.678Z,39.50
2022-08-28T13:16:44.875Z,39.00
2022-08-28T13:19:29.391Z,38.90
2022-08-28T13:22:01.864Z,39.20
2022-08-28T13:24:28.845Z,39.50
2022-08-28T13:27:14.347Z,40.30
2022-08-28T13:29:59.858Z,38.30
2022-08-28T13:32:31.505Z,37.70
2022-08-28T13:35:13.792Z,38.30
2022-08-28T13:37:50.093Z,38.30
2022-08-28T13:40:53.155Z,38.40
2022-08-28T13:43:11.208Z,39.10
2022-08-28T13:45:44.725Z,38.20
2022-08-28T13:48:17.477Z,38.80
2022-08-28T13:50:48.006Z,38.90
2022-08-28T13:53:18.107Z,38.10
2022-08-28T13:55:45.644Z,38.60
2022-08-28T13:58:14.105Z,39.30
2022-08-28T14:00:47.969Z,39.70
2022-08-28T14:03:34.434Z,39.60
2022-08-28T14:06:12.385Z,39.40
2022-08-28T14:08:41.198Z,40.60
2022-08-28T14:11:12.771Z,40.00
2022-08-28T14:13:47.278Z,40.70
2022-08-28T14:16:23.213Z,39.80
2022-08-28T14:18:53.157Z,40.20
2022-08-28T14:21:20.627Z,39.70
2022-08-28T14:23:47.537Z,39.40
2022-08-28T14:26:14.483Z,39.00
2022-08-28T14:28:42.410Z,39.40
2022-08-28T14:31:14.234Z,41.80
2022-08-28T14:33:42.453Z,41.10
2022-08-28T14:36:24.320Z,39.50
2022-08-28T14:38:54.203Z,39.00
2022-08-28T14:41:23.097Z,42.20
2022-08-28T14:43:50.217Z,38.30
2022-08-28T14:46:28.081Z,39.00
2022-08-28T14:49:04.936Z,39.60
2022-08-28T14:51:34.217Z,39.80
2022-08-28T14:54:02.139Z,40.40
2022-08-28T14:56:31.075Z,40.30
2022-08-28T14:59:00.349Z,41.90
2022-08-28T15:01:39.853Z,42.00
2022-08-28T15:04:11.410Z,43.00
2022-08-28T15:06:38.541Z,42.10
2022-08-28T15:09:05.740Z,41.70
2022-08-28T15:11:32.975Z,42.00
2022-08-28T15:13:59.903Z,40.40
2022-08-28T15:16:32.937Z,40.90
2022-08-28T15:19:00.697Z,41.00
2022-08-28T15:21:33.775Z,42.30
2022-08-28T15:24:03.299Z,44.20
2022-08-28T15:26:31.304Z,44.60
2022-08-28T15:29:02.488Z,43.80
2022-08-28T15:31:34.981Z,45.10
2022-08-28T15:34:06.519Z,46.90
2022-08-28T15:36:41.367Z,48.30
2022-08-28T15:39:28.223Z,47.80
2022-08-28T15:41:55.910Z,48.20
2022-08-28T15:44:23.043Z,49.60
2022-08-28T15:46:58.871Z,49.00
2022-08-28T15:49:28.409Z,49.60
2022-08-28T15:51:56.628Z,51.20
2022-08-28T15:54:24.243Z,49.30
2022-08-28T15:56:53.783Z,50.10
2022-08-28T15:59:21.812Z,50.50
2022-08-28T16:04:18.970Z,49.20
2022-08-28T16:06:46.111Z,50.30
2022-08-28T16:09:14.560Z,50.20
2022-08-28T16:11:43.920Z,49.80
2022-08-28T16:14:11.896Z,50.80
2022-08-28T16:16:39.718Z,51.30
2022-08-28T16:19:13.511Z,51.70
2022-08-28T16:21:40.653Z,52.30
2022-08-28T16:24:07.650Z,53.00
2022-08-28T16:26:34.766Z,53.60
2022-08-28T16:29:01.745Z,54.00
2022-08-28T16:31:28.684Z,54.90
2022-08-28T16:33:57.017Z,55.00
2022-08-28T16:36:25.309Z,55.60
2022-08-28T16:39:00.561Z,55.90
2022-08-28T16:41:31.965Z,55.80
2022-08-28T16:43:59.290Z,56.50
2022-08-28T16:46:27.647Z,57.30
2022-08-28T16:48:54.921Z,57.20
2022-08-28T16:51:26.973Z,58.20
2022-08-28T16:53:54.978Z,58.00
2022-08-28T16:56:23.701Z,58.70
2022-08-28T16:58:53.075Z,58.80
2022-08-28T17:01:24.150Z,59.40
2022-08-28T17:03:52.727Z,59.60
2022-08-28T17:06:26.947Z,60.50
2022-08-28T17:08:56.845Z,61.10
2022-08-28T17:11:26.141Z,59.70
2022-08-28T17:13:53.296Z,60.20
2022-08-28T17:16:21.976Z,61.80
2022-08-28T17:18:52.233Z,61.30
2022-08-28T17:21:39.953Z,61.80
2022-08-28T17:24:08.087Z,62.30
2022-08-28T17:26:35.160Z,62.40
2022-08-28T17:29:02.929Z,62.50
2022-08-28T17:33:57.775Z,63.40
2022-08-28T17:36:32.435Z,63.10
2022-08-28T17:39:07.365Z,63.50
2022-08-28T17:41:34.352Z,64.20
2022-08-28T17:44:02.568Z,64.40
2022-08-28T17:49:04.960Z,64.40
2022-08-28T17:54:18.456Z,64.50
2022-08-28T17:59:15.247Z,65.60
2022-08-28T18:01:43.286Z,65.80
2022-08-28T18:04:11.044Z,66.00
2022-08-28T18:09:09.614Z,66.10
2022-08-28T18:11:37.926Z,66.80
2022-08-28T18:14:05.336Z,67.50
2022-08-28T18:16:33.882Z,67.50
2022-08-28T18:19:02.053Z,68.00
2022-08-28T18:21:29.213Z,68.10
2022-08-28T18:26:23.623Z,68.60
2022-08-28T18:28:51.212Z,68.90
2022-08-28T18:31:18.792Z,69.10
2022-08-28T18:36:15.080Z,69.50
2022-08-28T18:38:43.761Z,70.60
2022-08-28T18:41:12.318Z,70.70
2022-08-28T18:43:39.615Z,71.20
2022-08-28T18:46:09.259Z,71.50
2022-08-28T18:48:37.292Z,72.20
2022-08-28T18:51:07.737Z,72.40
2022-08-28T18:53:35.547Z,72.70
2022-08-28T18:56:02.764Z,72.90
2022-08-28T18:58:32.178Z,73.20
2022-08-28T19:01:01.123Z,73.40
2022-08-28T19:03:28.938Z,74.10
2022-08-28T19:08:25.333Z,74.80
2022-08-28T19:13:20.489Z,75.90
2022-08-28T19:15:52.819Z,75.50
2022-08-28T19:20:47.573Z,76.80
2022-08-28T19:23:17.903Z,77.10
2022-08-28T19:25:45.897Z,77.50
2022-08-28T19:28:13.886Z,77.80
2022-08-28T19:30:41.167Z,78.30
2022-08-28T19:33:08.281Z,77.90
2022-08-28T19:35:35.469Z,78.40
2022-08-28T19:38:02.357Z,79.30
2022-08-28T19:40:29.382Z,79.30
2022-08-28T19:42:56.523Z,80.00
2022-08-28T19:47:52.390Z,79.80
2022-08-28T19:50:20.210Z,80.70
2022-08-28T19:52:47.596Z,80.70
2022-08-28T19:55:26.037Z,81.00
2022-08-28T19:57:53.388Z,82.00
2022-08-28T20:00:28.550Z,82.10
2022-08-28T20:02:56.232Z,82.60
2022-08-28T20:05:24.012Z,83.00
2022-08-28T20:07:51.824Z,83.00
2022-08-28T20:10:19.566Z,82.90
2022-08-28T20:12:48.585Z,83.60
2022-08-28T20:15:17.735Z,84.20
2022-08-28T20:17:49.352Z,83.80
2022-08-28T20:20:19.286Z,84.70
2022-08-28T20:25:15.613Z,85.60
2022-08-28T20:27:42.606Z,85.90
2022-08-28T20:30:11.261Z,85.90
2022-08-28T20:32:40.864Z,85.90
2022-08-28T20:35:10.651Z,86.60
2022-08-28T20:37:44.672Z,86.60
2022-08-28T20:40:19.000Z,86.90
2022-08-28T20:42:46.526Z,87.30
2022-08-28T20:45:15.174Z,87.60
2022-08-28T20:47:42.462Z,88.10
2022-08-28T20:50:09.952Z,88.40
2022-08-28T20:55:07.946Z,88.90
2022-08-28T20:57:36.034Z,89.30
2022-08-28T21:00:08.908Z,89.50
2022-08-28T21:02:37.109Z,89.50
2022-08-28T21:05:04.901Z,90.20
2022-08-28T21:07:34.123Z,90.60
2022-08-28T21:10:04.183Z,90.50
2022-08-28T21:12:33.798Z,90.80
2022-08-28T21:15:00.913Z,90.80
2022-08-28T21:17:29.012Z,91.10
2022-08-28T21:20:00.378Z,91.10
2022-08-28T21:22:27.481Z,91.40
2022-08-28T21:27:21.951Z,92.20
2022-08-28T21:29:48.812Z,92.20
2022-08-28T21:32:16.770Z,92.50
2022-08-28T21:34:43.910Z,92.80
2022-08-28T21:37:10.850Z,93.20
2022-08-28T21:39:37.912Z,93.50
2022-08-28T21:44:32.644Z,94.40
2022-08-28T21:46:59.676Z,94.70
2022-08-28T21:49:26.589Z,95.40
2022-08-28T21:51:53.483Z,95.30
2022-08-28T21:56:48.092Z,95.60
2022-08-28T21:59:17.473Z,96.20
2022-08-28T22:01:44.715Z,96.60
2022-08-28T22:04:11.944Z,97.30
2022-08-28T22:06:40.498Z,97.70
2022-08-28T22:09:08.957Z,98.10
2022-08-28T22:11:36.462Z,98.30
2022-08-28T22:16:31.607Z,99.20
2022-08-28T22:18:59.048Z,99.60
2022-08-28T22:21:45.949Z,99.90
2022-08-28T22:24:13.410Z,99.90
2022-08-28T22:26:42.022Z,99.90
2022-08-28T22:29:09.861Z,99.90
2022-08-28T22:31:39.677Z,99.90
2022-08-28T22:34:13.270Z,99.90
2022-08-28T22:36:40.249Z,99.90
2022-08-28T22:41:37.482Z,99.90
2022-08-28T22:46:31.878Z,99.90
2022-08-28T22:48:59.323Z,99.90
2022-08-28T22:51:26.266Z,99.90
2022-08-28T22:53:54.399Z,99.90
2022-08-28T23:01:20.687Z,99.90
2022-08-28T23:03:48.338Z,99.90
2022-08-28T23:06:15.968Z,99.90
2022-08-28T23:08:43.394Z,99.90
2022-08-28T23:11:10.831Z,99.90
2022-08-28T23:13:38.886Z,99.90
2022-08-28T23:16:07.180Z,99.90
2022-08-28T23:18:51.687Z,99.90
2022-08-28T23:21:23.877Z,99.90
2022-08-28T23:26:21.447Z,99.90
2022-08-28T23:28:48.408Z,99.90
2022-08-28T23:31:15.418Z,99.90
2022-08-28T23:33:42.752Z,99.90
2022-08-28T23:38:40.685Z,99.90
2022-08-28T23:41:11.307Z,99.90
2022-08-28T23:43:38.653Z,99.90
2022-08-28T23:48:33.732Z,99.90
2022-08-28T23:53:30.630Z,99.90
2022-08-28T23:55:59.602Z,99.90
2022-08-28T23:58:31.853Z,99.90
